Hlavní strana
METAR-TAF:

METAR-TAF

Letiště :

Shell Mera, Ekvádor

zeměpisná šířka: 01-30-19S, zeměpisná délka: 078-03-46W, výška: 1056 m

Aktuální stav počasí

Zpráva byla vytvořena před 2 hodinami a 54 minutami, v 23:00 UTC
Bezvětří
Teplota 24°C
Vlhkost vzduchu 78%
Tlak 1012 hPa
Viditelnost 10 km a více
Polojasno ve výšce 3000 ft
Oblačno až skoro zataženo ve výšce 10000 ft
přeháňky v blízkosti

METAR: SESM 252300Z 00000KT 9999 VCSH SCT030 BKN100 24/20 Q1012 RMK A2991

Čas: 20:54 (01:54 UTC)


TAF: chybějící

Stav a předpovědi počasí z více než 4 000 letišť (zprávy METAR a TAF).

Červené a žluté tečky na mapě představují dostupné meteorologické stanice.

Když kurzor umístíte na tečku, zobrazí se název stanice.

Pak kliknutím zobrazíte stav a předpověď počasí.

Chcete-li změnit mapu, kliknutím na zelené tlačítko se znaménkem +mapu přiblížíte, kliknutím na zelené tlačítko se znaménkem – mapu oddálíte a kliknutím na zelené šipky přejdete na sousední mapy.


METAR-TAF: